Ilirska Bistrica, Slovenia

10:19 AM CEST on September 29, 2016 (GMT +0200)
Knezak | | Change Station

Elev 1909 ft 45.63 °N, 14.24 °E | Updated 58 seconds ago

Clear
Cerah
70.7 °F
Feels Like 76 °F
N
0.7
Angin Variable Angin from Baratdaya
Gusts 1.6 mph

Siang Ini
High -- | Low -- °F
--% Chance of Precip.
Yesterday
High -- | Low -- °F
Precip. -- Inch
Tekanan 30.33 Inch
Jarak Pandang -9999.0 Mil
Awan
Ideks Panas 76 °F
Titik Embun 55 °F
Kelembaban 57%
Rainfall 0.00 Inch
Snow Depth Not available.
6:59 AM 6:46 PM
Waning Crescent, 3% visible
METAR LDRI 290800Z 24003KT 150V330 CAVOK 19/10 Q1027
Tekanan 30.33 Inch
Jarak Pandang -9999.0 Mil
Awan
Ideks Panas 76 °F
Titik Embun 55 °F
Kelembaban 57%
Rainfall 0.00 Inch
Snow Depth Not available.
6:59 AM 6:46 PM
Waning Crescent, 3% visible
METAR LDRI 290800Z 24003KT 150V330 CAVOK 19/10 Q1027

10-Day Weather Forecast

×

Almanac

Astronomi

Sep. 29, 2016 Rise Set
Actual Time
Civil Twilight
Nautical Twilight
Astronomical Twilight
Moon
Length Of Visible Light
Lama Satu Hari
Tomorrow will be .
, % of the Moon is Illuminated

Today's Extremes

Country Highs Country Lows

Community

WunderPhotos

Upload Photos

1,942,446 photos uploaded!

WunderBlog® & News

Nearby

Air Quality

  Air Quality AQ Index Pollutant
Not available.

Snow Depth

Station Depth Elevation

Earthquake Activity

City Distance Mag. Time & Date
Minimum magnitude displayed is 2.5.

Coastal Water Temperatures

Lokasi Temperatur

Stations

Nearby Weather Stations

Station Location Temp Angin Dingin Titik Embun Kelembaban Angin Precip. Elev Telah Diperbaharui Type